Language selection

My Weather Profile Weather Topics  | 

Lake Nipigon: Past 24 Hour Conditions

 

Marathon Airport

10:00 PM EST 29 November 2022
Disclaimer

This table is a summary of hourly weather conditions for the past 24 hours.
Please note that these observations might not always be representative of weather conditions over their associated marine area.

Date / Time
(EST)
Wind(knots) Conditions Visibility(km) Pressure(kPa) Air tempC) Relative humidity(%) Dew pointC) Wind Chill
29 November 2022
22:00 ESE 7 N/A N/A 99.3 0 100 0 *
21:00 E 7 N/A N/A 99.5 0 100 0 *
20:00 E 5 N/A N/A 99.7 0 100 0 *
19:00 E 7 N/A N/A 99.9 0 100 0 *
18:00 ESE 9 N/A N/A 100.0 1 100 1 *
17:00 SE 8 Rain 5 100.2 2 99 1 *
16:00 S 7 gust 16 Light Rain 8 100.4 2 98 2 *
15:00 S 10 gust 18 Light Rain 8 100.5 3 97 3 *
14:00 S 9 gust 17 Light Rain 6 100.6 3 99 3 *
13:00 S 10 gust 17 Light Drizzle 8 100.7 3 99 3 *
12:00 S 11 gust 20 Light Drizzle 8 100.8 3 95 2 *
11:00 S 8 gust 17 Mist 10 100.9 3 92 2 *
10:00 S 8 gust 18 Mist 10 100.9 3 91 2 *
9:00 S 7 Mostly Cloudy 13 100.9 3 93 2 *
8:00 S 9 gust 19 Mostly Cloudy 24 100.9 3 93 2 *
7:00 S 7 gust 17 N/A N/A 100.9 3 93 2 *
6:00 S 9 gust 17 N/A N/A 100.9 3 95 2 *
5:00 S 9 gust 18 N/A N/A 100.9 3 93 2 *
4:00 S 8 gust 16 N/A N/A 100.9 3 94 2 *
3:00 S 10 gust 19 N/A N/A 100.9 2 95 2 *
2:00 S 8 gust 17 N/A N/A 101.0 1 98 1 *
1:00 SE 8 N/A N/A 101.0 -3 97 -3 -7
0:00 SE 8 N/A N/A 101.1 -3 96 -4 -8
28 November 2022
23:00 SE 10 N/A N/A 101.1 -3 87 -5 -9
22:00 ESE 11 gust 17 N/A N/A 101.1 -3 75 -7 -9

Zoom-in to make a selection

Map of Great Lakes - Lake Superior marine weather areas Mid Superior - 45001 East Superior - 45004 West Superior - 45006 Slate Island - 45136 Lake Of the Woods - 45148 Kenora Airport Royal Island Armstrong Airport Caribou Island Marathon Airport Pukaskwa National Park Thunder Bay Airport Welcome Island Little Flatland Island Sault Ste. Marie Airport Wawa Airport
Legend:
buoy Buoy
land station Land Station

Great Lakes - Lake Superior Area

Another Region

What we are doing

Date modified: